Saint-Yan Airport

Airport
ICAO code: 
LFLN
Summary
ICAO Region: 
EUR
Territory: 
Location: 
, Bourgogne
Serving: 
St.-yan
Elevation: 
796 ft
Coordinates: 
Aerial View: 
46° 24' 45.13" N, 4° 0' 47.75" E
Metar
Observation
LFLN 302100Z AUTO 23010KT 200V260 9999 SCT029 OVC036 06/M02 Q1021 NOSIG
Station
Saint-Yan
Date/Time
2021-11-30 21:00:00
Wind direction
230°
Wind speed
10 kts
Lowest cloud amount
scattered clouds
Temperature
6°C
Dew point
-2°C
Humidity
56%
QNH
1021 hPa
Weather condition
n/a

Runways

Designator Length Width Surface Rops
15R/33L 1500 30 CON No/No
15L/33R 2030 45 CON No/No
Airport map: 
Aerial View: 

SKYbrary Partners:

Safety knowledge contributed by: